sensor_id;sensor_type;location;lat;lon;timestamp;P1;durP1;ratioP1;P2;durP2;ratioP2
17496;SDS011;62150;43.582;1.456;2022-08-02T05:46:52;7.88;;;3.90;;
17496;SDS011;62150;43.582;1.456;2022-08-02T05:49:19;7.43;;;3.88;;
17496;SDS011;62150;43.582;1.456;2022-08-02T05:52:03;9.43;;;3.92;;
17496;SDS011;62150;43.582;1.456;2022-08-02T05:54:35;9.07;;;3.90;;
17496;SDS011;62150;43.582;1.456;2022-08-02T05:57:13;7.68;;;4.07;;
17496;SDS011;62150;43.582;1.456;2022-08-02T05:59:52;6.70;;;3.70;;
17496;SDS011;62150;43.582;1.456;2022-08-02T06:02:35;8.68;;;3.70;;
17496;SDS011;62150;43.582;1.456;2022-08-02T06:05:23;8.70;;;4.03;;
17496;SDS011;62150;43.582;1.456;2022-08-02T06:07:54;6.95;;;4.07;;
17496;SDS011;62150;43.582;1.456;2022-08-02T06:10:24;7.82;;;3.90;;
17496;SDS011;62150;43.582;1.456;2022-08-02T06:12:55;8.52;;;4.05;;
17496;SDS011;62150;43.582;1.456;2022-08-02T06:15:32;9.02;;;3.92;;
17496;SDS011;62150;43.582;1.456;2022-08-02T06:18:02;6.60;;;3.60;;
17496;SDS011;62150;43.582;1.456;2022-08-02T06:20:30;7.85;;;4.00;;
17496;SDS011;62150;43.582;1.456;2022-08-02T06:23:00;7.85;;;3.90;;
17496;SDS011;62150;43.582;1.456;2022-08-02T06:25:29;10.57;;;4.32;;
17496;SDS011;62150;43.582;1.456;2022-08-02T06:27:58;7.78;;;4.03;;
17496;SDS011;62150;43.582;1.456;2022-08-02T06:30:27;9.32;;;3.85;;
17496;SDS011;62150;43.582;1.456;2022-08-02T06:32:55;9.48;;;4.10;;
17496;SDS011;62150;43.582;1.456;2022-08-02T06:35:27;9.00;;;4.10;;
17496;SDS011;62150;43.582;1.456;2022-08-02T06:38:00;8.88;;;4.38;;
17496;SDS011;62150;43.582;1.456;2022-08-02T06:40:29;9.90;;;3.90;;
17496;SDS011;62150;43.582;1.456;2022-08-02T06:43:09;7.70;;;4.15;;
17496;SDS011;62150;43.582;1.456;2022-08-02T06:45:38;7.40;;;4.05;;
17496;SDS011;62150;43.582;1.456;2022-08-02T06:48:06;9.15;;;4.25;;
17496;SDS011;62150;43.582;1.456;2022-08-02T06:50:36;10.45;;;3.80;;
17496;SDS011;62150;43.582;1.456;2022-08-02T06:53:06;7.70;;;3.85;;
17496;SDS011;62150;43.582;1.456;2022-08-02T06:55:34;8.82;;;4.20;;
17496;SDS011;62150;43.582;1.456;2022-08-02T06:58:02;7.93;;;3.75;;
17496;SDS011;62150;43.582;1.456;2022-08-02T07:00:29;7.93;;;3.97;;
17496;SDS011;62150;43.582;1.456;2022-08-02T07:02:57;7.53;;;3.90;;
17496;SDS011;62150;43.582;1.456;2022-08-02T07:05:24;8.65;;;4.05;;
17496;SDS011;62150;43.582;1.456;2022-08-02T07:07:53;9.77;;;4.05;;
17496;SDS011;62150;43.582;1.456;2022-08-02T07:10:22;9.43;;;4.30;;
17496;SDS011;62150;43.582;1.456;2022-08-02T07:12:50;7.88;;;3.80;;
17496;SDS011;62150;43.582;1.456;2022-08-02T07:15:17;7.45;;;3.60;;
17496;SDS011;62150;43.582;1.456;2022-08-02T07:17:45;8.90;;;4.18;;
17496;SDS011;62150;43.582;1.456;2022-08-02T07:20:13;9.68;;;4.15;;
17496;SDS011;62150;43.582;1.456;2022-08-02T07:22:40;8.40;;;4.18;;
17496;SDS011;62150;43.582;1.456;2022-08-02T07:25:09;9.98;;;4.00;;
17496;SDS011;62150;43.582;1.456;2022-08-02T07:27:38;9.90;;;4.40;;
17496;SDS011;62150;43.582;1.456;2022-08-02T07:30:08;8.90;;;4.03;;
17496;SDS011;62150;43.582;1.456;2022-08-02T07:32:37;9.70;;;4.25;;
17496;SDS011;62150;43.582;1.456;2022-08-02T07:35:05;8.10;;;4.03;;
17496;SDS011;62150;43.582;1.456;2022-08-02T07:37:34;8.60;;;3.90;;
17496;SDS011;62150;43.582;1.456;2022-08-02T07:40:03;7.65;;;3.95;;
17496;SDS011;62150;43.582;1.456;2022-08-02T07:42:33;8.05;;;4.00;;
17496;SDS011;62150;43.582;1.456;2022-08-02T07:45:01;9.23;;;4.03;;
17496;SDS011;62150;43.582;1.456;2022-08-02T07:47:34;8.90;;;4.00;;
17496;SDS011;62150;43.582;1.456;2022-08-02T07:50:06;8.55;;;4.25;;
17496;SDS011;62150;43.582;1.456;2022-08-02T07:52:36;7.55;;;3.88;;
17496;SDS011;62150;43.582;1.456;2022-08-02T07:55:04;8.65;;;4.30;;
17496;SDS011;62150;43.582;1.456;2022-08-02T07:57:34;6.68;;;3.70;;
17496;SDS011;62150;43.582;1.456;2022-08-02T08:00:02;7.38;;;3.80;;
17496;SDS011;62150;43.582;1.456;2022-08-02T08:02:32;10.32;;;4.10;;
17496;SDS011;62150;43.582;1.456;2022-08-02T08:04:59;8.82;;;4.03;;
17496;SDS011;62150;43.582;1.456;2022-08-02T08:07:27;8.32;;;4.00;;
17496;SDS011;62150;43.582;1.456;2022-08-02T08:09:58;8.35;;;4.10;;
17496;SDS011;62150;43.582;1.456;2022-08-02T08:12:28;7.15;;;3.78;;
17496;SDS011;62150;43.582;1.456;2022-08-02T08:14:57;8.32;;;4.10;;
17496;SDS011;62150;43.582;1.456;2022-08-02T08:17:25;7.18;;;3.55;;
17496;SDS011;62150;43.582;1.456;2022-08-02T08:19:52;8.50;;;3.80;;
17496;SDS011;62150;43.582;1.456;2022-08-02T08:22:20;8.32;;;4.13;;
17496;SDS011;62150;43.582;1.456;2022-08-02T08:24:48;6.95;;;3.60;;
17496;SDS011;62150;43.582;1.456;2022-08-02T08:27:16;6.80;;;3.80;;
17496;SDS011;62150;43.582;1.456;2022-08-02T08:29:46;8.40;;;4.00;;
17496;SDS011;62150;43.582;1.456;2022-08-02T08:32:16;6.85;;;3.70;;
17496;SDS011;62150;43.582;1.456;2022-08-02T08:34:43;7.45;;;3.72;;
17496;SDS011;62150;43.582;1.456;2022-08-02T08:37:12;7.05;;;3.80;;
17496;SDS011;62150;43.582;1.456;2022-08-02T08:39:40;6.97;;;3.85;;
17496;SDS011;62150;43.582;1.456;2022-08-02T08:42:07;6.75;;;3.50;;
17496;SDS011;62150;43.582;1.456;2022-08-02T08:44:35;8.85;;;4.00;;
17496;SDS011;62150;43.582;1.456;2022-08-02T08:47:03;7.18;;;3.50;;
17496;SDS011;62150;43.582;1.456;2022-08-02T08:49:33;8.65;;;3.80;;
17496;SDS011;62150;43.582;1.456;2022-08-02T08:52:05;7.47;;;3.80;;
17496;SDS011;62150;43.582;1.456;2022-08-02T08:54:34;8.13;;;4.38;;
17496;SDS011;62150;43.582;1.456;2022-08-02T08:57:03;8.15;;;4.22;;
17496;SDS011;62150;43.582;1.456;2022-08-02T08:59:31;10.20;;;3.88;;
17496;SDS011;62150;43.582;1.456;2022-08-02T09:01:59;9.68;;;4.05;;
17496;SDS011;62150;43.582;1.456;2022-08-02T09:04:29;6.28;;;3.65;;
17496;SDS011;62150;43.582;1.456;2022-08-02T09:06:59;8.02;;;3.95;;
17496;SDS011;62150;43.582;1.456;2022-08-02T09:09:27;8.73;;;3.90;;
17496;SDS011;62150;43.582;1.456;2022-08-02T09:11:55;8.45;;;3.90;;
17496;SDS011;62150;43.582;1.456;2022-08-02T09:14:39;9.07;;;4.18;;
17496;SDS011;62150;43.582;1.456;2022-08-02T09:17:08;8.05;;;4.05;;
17496;SDS011;62150;43.582;1.456;2022-08-02T09:19:39;8.70;;;4.20;;
17496;SDS011;62150;43.582;1.456;2022-08-02T09:22:07;9.57;;;3.97;;
17496;SDS011;62150;43.582;1.456;2022-08-02T09:24:40;10.40;;;4.10;;
17496;SDS011;62150;43.582;1.456;2022-08-02T09:27:10;7.68;;;3.80;;
17496;SDS011;62150;43.582;1.456;2022-08-02T09:29:38;11.35;;;4.32;;
17496;SDS011;62150;43.582;1.456;2022-08-02T09:32:06;8.05;;;3.92;;
17496;SDS011;62150;43.582;1.456;2022-08-02T09:34:45;7.75;;;4.10;;
17496;SDS011;62150;43.582;1.456;2022-08-02T09:37:20;6.78;;;3.80;;
17496;SDS011;62150;43.582;1.456;2022-08-02T09:39:53;8.90;;;3.90;;
17496;SDS011;62150;43.582;1.456;2022-08-02T09:42:23;9.32;;;4.10;;
17496;SDS011;62150;43.582;1.456;2022-08-02T09:44:54;7.40;;;3.70;;
17496;SDS011;62150;43.582;1.456;2022-08-02T09:47:23;8.88;;;3.92;;
17496;SDS011;62150;43.582;1.456;2022-08-02T09:49:54;9.85;;;4.15;;
17496;SDS011;62150;43.582;1.456;2022-08-02T09:52:25;7.22;;;3.90;;
17496;SDS011;62150;43.582;1.456;2022-08-02T09:54:53;8.30;;;4.00;;
17496;SDS011;62150;43.582;1.456;2022-08-02T09:57:28;8.23;;;4.07;;
17496;SDS011;62150;43.582;1.456;2022-08-02T10:00:05;7.47;;;3.97;;
17496;SDS011;62150;43.582;1.456;2022-08-02T10:02:34;7.50;;;4.03;;
17496;SDS011;62150;43.582;1.456;2022-08-02T10:05:04;7.15;;;3.88;;
17496;SDS011;62150;43.582;1.456;2022-08-02T10:07:32;8.23;;;4.00;;
17496;SDS011;62150;43.582;1.456;2022-08-02T10:10:00;8.48;;;3.95;;
17496;SDS011;62150;43.582;1.456;2022-08-02T10:12:28;7.57;;;3.90;;
17496;SDS011;62150;43.582;1.456;2022-08-02T10:14:55;6.78;;;3.53;;
17496;SDS011;62150;43.582;1.456;2022-08-02T10:17:24;8.35;;;4.05;;
17496;SDS011;62150;43.582;1.456;2022-08-02T10:19:52;7.45;;;3.60;;
17496;SDS011;62150;43.582;1.456;2022-08-02T10:22:21;8.27;;;3.67;;
17496;SDS011;62150;43.582;1.456;2022-08-02T10:24:49;6.88;;;3.55;;
17496;SDS011;62150;43.582;1.456;2022-08-02T10:27:20;6.38;;;3.60;;
17496;SDS011;62150;43.582;1.456;2022-08-02T10:29:49;8.30;;;4.00;;
17496;SDS011;62150;43.582;1.456;2022-08-02T10:32:20;8.63;;;3.80;;
17496;SDS011;62150;43.582;1.456;2022-08-02T10:34:54;8.65;;;3.75;;
17496;SDS011;62150;43.582;1.456;2022-08-02T10:37:28;7.25;;;3.70;;
17496;SDS011;62150;43.582;1.456;2022-08-02T10:39:57;8.68;;;4.13;;
17496;SDS011;62150;43.582;1.456;2022-08-02T10:42:43;6.07;;;3.50;;
17496;SDS011;62150;43.582;1.456;2022-08-02T10:45:13;9.40;;;3.63;;
17496;SDS011;62150;43.582;1.456;2022-08-02T10:47:55;7.97;;;3.45;;
17496;SDS011;62150;43.582;1.456;2022-08-02T10:53:21;7.43;;;3.33;;
17496;SDS011;62150;43.582;1.456;2022-08-02T10:55:51;5.53;;;3.30;;
17496;SDS011;62150;43.582;1.456;2022-08-02T10:58:20;5.57;;;3.03;;
17496;SDS011;62150;43.582;1.456;2022-08-02T11:00:48;7.97;;;3.40;;
17496;SDS011;62150;43.582;1.456;2022-08-02T11:03:32;6.85;;;3.40;;
17496;SDS011;62150;43.582;1.456;2022-08-02T11:06:08;6.32;;;3.22;;
17496;SDS011;62150;43.582;1.456;2022-08-02T11:08:38;7.28;;;3.47;;
17496;SDS011;62150;43.582;1.456;2022-08-02T11:11:16;6.38;;;3.15;;
17496;SDS011;62150;43.582;1.456;2022-08-02T11:14:00;6.97;;;2.80;;
17496;SDS011;62150;43.582;1.456;2022-08-02T11:19:35;3.90;;;2.40;;
17496;SDS011;62150;43.582;1.456;2022-08-02T11:22:42;5.82;;;2.80;;
17496;SDS011;62150;43.582;1.456;2022-08-02T11:25:32;4.85;;;2.60;;
17496;SDS011;62150;43.582;1.456;2022-08-02T11:28:07;5.90;;;2.70;;
17496;SDS011;62150;43.582;1.456;2022-08-02T11:30:36;6.20;;;2.80;;
17496;SDS011;62150;43.582;1.456;2022-08-02T11:33:04;5.22;;;2.65;;
17496;SDS011;62150;43.582;1.456;2022-08-02T11:35:33;5.80;;;2.78;;
17496;SDS011;62150;43.582;1.456;2022-08-02T11:38:12;6.18;;;2.50;;
17496;SDS011;62150;43.582;1.456;2022-08-02T11:40:42;4.97;;;2.70;;
17496;SDS011;62150;43.582;1.456;2022-08-02T11:43:17;4.20;;;2.47;;
17496;SDS011;62150;43.582;1.456;2022-08-02T11:45:46;4.88;;;2.60;;
17496;SDS011;62150;43.582;1.456;2022-08-02T11:48:14;5.20;;;2.58;;
17496;SDS011;62150;43.582;1.456;2022-08-02T11:51:03;3.38;;;2.25;;
17496;SDS011;62150;43.582;1.456;2022-08-02T11:56:17;5.53;;;2.47;;
17496;SDS011;62150;43.582;1.456;2022-08-02T11:59:00;6.13;;;2.60;;
17496;SDS011;62150;43.582;1.456;2022-08-02T12:01:29;5.00;;;2.80;;
17496;SDS011;62150;43.582;1.456;2022-08-02T12:03:58;5.38;;;2.65;;
17496;SDS011;62150;43.582;1.456;2022-08-02T12:06:27;4.65;;;2.50;;
17496;SDS011;62150;43.582;1.456;2022-08-02T12:08:59;4.05;;;2.80;;
17496;SDS011;62150;43.582;1.456;2022-08-02T12:11:31;5.13;;;2.70;;
17496;SDS011;62150;43.582;1.456;2022-08-02T12:14:00;5.35;;;2.60;;
17496;SDS011;62150;43.582;1.456;2022-08-02T12:16:31;5.05;;;2.60;;
17496;SDS011;62150;43.582;1.456;2022-08-02T12:19:19;5.30;;;2.30;;
17496;SDS011;62150;43.582;1.456;2022-08-02T12:22:05;5.28;;;2.40;;
17496;SDS011;62150;43.582;1.456;2022-08-02T12:24:35;4.20;;;2.50;;
17496;SDS011;62150;43.582;1.456;2022-08-02T12:27:05;2.75;;;2.20;;
17496;SDS011;62150;43.582;1.456;2022-08-02T12:29:35;3.92;;;2.30;;
17496;SDS011;62150;43.582;1.456;2022-08-02T12:32:04;4.65;;;2.70;;
17496;SDS011;62150;43.582;1.456;2022-08-02T12:34:32;3.10;;;2.35;;
17496;SDS011;62150;43.582;1.456;2022-08-02T12:37:01;4.68;;;2.50;;
17496;SDS011;62150;43.582;1.456;2022-08-02T12:39:37;3.65;;;2.60;;
17496;SDS011;62150;43.582;1.456;2022-08-02T12:42:08;2.90;;;2.45;;
17496;SDS011;62150;43.582;1.456;2022-08-02T12:44:48;3.90;;;2.50;;
17496;SDS011;62150;43.582;1.456;2022-08-02T12:47:17;4.43;;;2.30;;
17496;SDS011;62150;43.582;1.456;2022-08-02T12:49:45;5.93;;;2.60;;
17496;SDS011;62150;43.582;1.456;2022-08-02T12:52:28;4.68;;;2.40;;
17496;SDS011;62150;43.582;1.456;2022-08-02T12:54:56;4.65;;;2.30;;
17496;SDS011;62150;43.582;1.456;2022-08-02T12:57:25;3.33;;;2.30;;
17496;SDS011;62150;43.582;1.456;2022-08-02T12:59:53;6.78;;;2.50;;
17496;SDS011;62150;43.582;1.456;2022-08-02T13:02:20;3.10;;;2.30;;
17496;SDS011;62150;43.582;1.456;2022-08-02T13:04:48;4.07;;;2.30;;
17496;SDS011;62150;43.582;1.456;2022-08-02T13:07:15;3.28;;;1.90;;
17496;SDS011;62150;43.582;1.456;2022-08-02T13:09:43;3.10;;;2.20;;
17496;SDS011;62150;43.582;1.456;2022-08-02T13:12:12;2.38;;;2.08;;
17496;SDS011;62150;43.582;1.456;2022-08-02T13:14:41;2.97;;;2.00;;
17496;SDS011;62150;43.582;1.456;2022-08-02T13:17:09;2.70;;;2.10;;
17496;SDS011;62150;43.582;1.456;2022-08-02T13:19:37;3.47;;;2.00;;
17496;SDS011;62150;43.582;1.456;2022-08-02T13:22:06;4.32;;;2.15;;
17496;SDS011;62150;43.582;1.456;2022-08-02T13:24:33;3.70;;;2.10;;
17496;SDS011;62150;43.582;1.456;2022-08-02T13:27:01;3.05;;;2.03;;
17496;SDS011;62150;43.582;1.456;2022-08-02T13:29:29;4.00;;;2.00;;
17496;SDS011;62150;43.582;1.456;2022-08-02T13:31:58;2.30;;;1.85;;
17496;SDS011;62150;43.582;1.456;2022-08-02T13:34:25;2.88;;;1.92;;
17496;SDS011;62150;43.582;1.456;2022-08-02T13:36:53;2.40;;;1.73;;
17496;SDS011;62150;43.582;1.456;2022-08-02T13:39:20;1.90;;;1.80;;
17496;SDS011;62150;43.582;1.456;2022-08-02T13:41:48;2.47;;;1.80;;
17496;SDS011;62150;43.582;1.456;2022-08-02T13:44:15;2.63;;;1.58;;
17496;SDS011;62150;43.582;1.456;2022-08-02T13:46:43;1.75;;;1.65;;
17496;SDS011;62150;43.582;1.456;2022-08-02T13:49:12;2.20;;;1.67;;
17496;SDS011;62150;43.582;1.456;2022-08-02T13:51:39;2.25;;;1.67;;
17496;SDS011;62150;43.582;1.456;2022-08-02T13:54:07;1.95;;;1.63;;
17496;SDS011;62150;43.582;1.456;2022-08-02T13:56:34;2.13;;;1.70;;
17496;SDS011;62150;43.582;1.456;2022-08-02T13:59:02;3.55;;;1.80;;
17496;SDS011;62150;43.582;1.456;2022-08-02T14:01:30;3.15;;;1.70;;
17496;SDS011;62150;43.582;1.456;2022-08-02T14:03:57;2.08;;;1.60;;
17496;SDS011;62150;43.582;1.456;2022-08-02T14:06:26;2.53;;;1.70;;
17496;SDS011;62150;43.582;1.456;2022-08-02T14:08:54;1.77;;;1.60;;
17496;SDS011;62150;43.582;1.456;2022-08-02T14:11:22;1.98;;;1.50;;
17496;SDS011;62150;43.582;1.456;2022-08-02T14:13:49;1.65;;;1.50;;
17496;SDS011;62150;43.582;1.456;2022-08-02T14:16:17;2.08;;;1.65;;
17496;SDS011;62150;43.582;1.456;2022-08-02T14:18:44;2.78;;;1.80;;
17496;SDS011;62150;43.582;1.456;2022-08-02T14:21:12;2.88;;;1.80;;
17496;SDS011;62150;43.582;1.456;2022-08-02T14:23:41;1.73;;;1.52;;
17496;SDS011;62150;43.582;1.456;2022-08-02T14:26:08;1.85;;;1.60;;
17496;SDS011;62150;43.582;1.456;2022-08-02T14:28:36;2.95;;;1.60;;
17496;SDS011;62150;43.582;1.456;2022-08-02T14:31:05;1.73;;;1.50;;
17496;SDS011;62150;43.582;1.456;2022-08-02T14:33:32;2.03;;;1.60;;
17496;SDS011;62150;43.582;1.456;2022-08-02T14:36:00;4.18;;;1.52;;
17496;SDS011;62150;43.582;1.456;2022-08-02T14:38:28;1.60;;;1.40;;
17496;SDS011;62150;43.582;1.456;2022-08-02T14:40:58;3.85;;;1.50;;
17496;SDS011;62150;43.582;1.456;2022-08-02T14:43:25;1.90;;;1.67;;
17496;SDS011;62150;43.582;1.456;2022-08-02T14:46:10;2.33;;;1.70;;
17496;SDS011;62150;43.582;1.456;2022-08-02T14:48:37;2.42;;;1.50;;
17496;SDS011;62150;43.582;1.456;2022-08-02T14:51:05;1.50;;;1.40;;
17496;SDS011;62150;43.582;1.456;2022-08-02T14:53:33;1.65;;;1.50;;
17496;SDS011;62150;43.582;1.456;2022-08-02T14:56:02;1.67;;;1.58;;
17496;SDS011;62150;43.582;1.456;2022-08-02T14:58:30;3.00;;;1.90;;
17496;SDS011;62150;43.582;1.456;2022-08-02T15:00:57;2.63;;;1.90;;
17496;SDS011;62150;43.582;1.456;2022-08-02T15:03:25;1.85;;;1.67;;
17496;SDS011;62150;43.582;1.456;2022-08-02T15:05:52;1.65;;;1.50;;
17496;SDS011;62150;43.582;1.456;2022-08-02T15:08:20;1.65;;;1.30;;
17496;SDS011;62150;43.582;1.456;2022-08-02T15:10:48;2.08;;;1.50;;
17496;SDS011;62150;43.582;1.456;2022-08-02T15:13:17;1.45;;;1.35;;
17496;SDS011;62150;43.582;1.456;2022-08-02T15:15:44;1.77;;;1.45;;
17496;SDS011;62150;43.582;1.456;2022-08-02T15:18:12;1.92;;;1.40;;
17496;SDS011;62150;43.582;1.456;2022-08-02T15:20:40;1.70;;;1.50;;
17496;SDS011;62150;43.582;1.456;2022-08-02T15:23:07;2.35;;;1.65;;
17496;SDS011;62150;43.582;1.456;2022-08-02T15:25:35;1.80;;;1.60;;
17496;SDS011;62150;43.582;1.456;2022-08-02T15:28:02;2.60;;;1.60;;
17496;SDS011;62150;43.582;1.456;2022-08-02T15:30:32;1.48;;;1.38;;
17496;SDS011;62150;43.582;1.456;2022-08-02T15:33:00;1.50;;;1.40;;
17496;SDS011;62150;43.582;1.456;2022-08-02T15:35:28;2.25;;;1.50;;
17496;SDS011;62150;43.582;1.456;2022-08-02T15:37:56;2.65;;;1.63;;
17496;SDS011;62150;43.582;1.456;2022-08-02T15:40:23;1.60;;;1.50;;
17496;SDS011;62150;43.582;1.456;2022-08-02T15:42:51;1.95;;;1.60;;
17496;SDS011;62150;43.582;1.456;2022-08-02T15:45:19;1.52;;;1.42;;
17496;SDS011;62150;43.582;1.456;2022-08-02T15:47:48;1.92;;;1.60;;
17496;SDS011;62150;43.582;1.456;2022-08-02T15:50:15;1.98;;;1.42;;
17496;SDS011;62150;43.582;1.456;2022-08-02T15:52:43;1.60;;;1.50;;
17496;SDS011;62150;43.582;1.456;2022-08-02T15:55:10;1.60;;;1.40;;
17496;SDS011;62150;43.582;1.456;2022-08-02T15:57:38;1.40;;;1.30;;
17496;SDS011;62150;43.582;1.456;2022-08-02T16:00:06;1.95;;;1.40;;
17496;SDS011;62150;43.582;1.456;2022-08-02T16:02:34;1.55;;;1.45;;
17496;SDS011;62150;43.582;1.456;2022-08-02T16:05:03;1.55;;;1.45;;
17496;SDS011;62150;43.582;1.456;2022-08-02T16:07:31;1.45;;;1.35;;
17496;SDS011;62150;43.582;1.456;2022-08-02T16:09:59;1.63;;;1.40;;
17496;SDS011;62150;43.582;1.456;2022-08-02T16:12:28;1.63;;;1.52;;
17496;SDS011;62150;43.582;1.456;2022-08-02T16:14:56;1.60;;;1.50;;
17496;SDS011;62150;43.582;1.456;2022-08-02T16:17:23;2.08;;;1.33;;
17496;SDS011;62150;43.582;1.456;2022-08-02T16:19:51;2.00;;;1.50;;
17496;SDS011;62150;43.582;1.456;2022-08-02T16:22:20;2.78;;;1.85;;
17496;SDS011;62150;43.582;1.456;2022-08-02T16:24:48;1.60;;;1.50;;
17496;SDS011;62150;43.582;1.456;2022-08-02T16:27:16;2.17;;;1.60;;
17496;SDS011;62150;43.582;1.456;2022-08-02T16:29:43;1.73;;;1.60;;
17496;SDS011;62150;43.582;1.456;2022-08-02T16:32:12;2.38;;;1.65;;
17496;SDS011;62150;43.582;1.456;2022-08-02T16:34:41;1.60;;;1.50;;
17496;SDS011;62150;43.582;1.456;2022-08-02T16:37:09;3.13;;;1.65;;
17496;SDS011;62150;43.582;1.456;2022-08-02T16:39:38;1.90;;;1.70;;
17496;SDS011;62150;43.582;1.456;2022-08-02T16:42:06;1.77;;;1.50;;
17496;SDS011;62150;43.582;1.456;2022-08-02T16:44:33;3.78;;;1.50;;
17496;SDS011;62150;43.582;1.456;2022-08-02T16:47:01;1.60;;;1.50;;
17496;SDS011;62150;43.582;1.456;2022-08-02T16:49:29;2.03;;;1.40;;
17496;SDS011;62150;43.582;1.456;2022-08-02T16:51:56;3.00;;;1.50;;
17496;SDS011;62150;43.582;1.456;2022-08-02T16:54:24;2.38;;;1.50;;
17496;SDS011;62150;43.582;1.456;2022-08-02T16:56:53;2.55;;;1.40;;
17496;SDS011;62150;43.582;1.456;2022-08-02T16:59:20;1.60;;;1.50;;
17496;SDS011;62150;43.582;1.456;2022-08-02T17:01:48;2.70;;;1.60;;
17496;SDS011;62150;43.582;1.456;2022-08-02T17:04:15;1.92;;;1.60;;
17496;SDS011;62150;43.582;1.456;2022-08-02T17:06:43;2.47;;;1.60;;
17496;SDS011;62150;43.582;1.456;2022-08-02T17:09:10;2.10;;;1.70;;
17496;SDS011;62150;43.582;1.456;2022-08-02T17:11:38;2.70;;;1.73;;
17496;SDS011;62150;43.582;1.456;2022-08-02T17:14:07;2.25;;;1.70;;
17496;SDS011;62150;43.582;1.456;2022-08-02T17:16:34;2.22;;;1.70;;
17496;SDS011;62150;43.582;1.456;2022-08-02T17:19:02;5.13;;;1.85;;
17496;SDS011;62150;43.582;1.456;2022-08-02T17:21:29;2.03;;;1.77;;
17496;SDS011;62150;43.582;1.456;2022-08-02T17:23:57;2.60;;;1.70;;
17496;SDS011;62150;43.582;1.456;2022-08-02T17:26:25;2.75;;;1.60;;
17496;SDS011;62150;43.582;1.456;2022-08-02T17:28:53;1.80;;;1.60;;
17496;SDS011;62150;43.582;1.456;2022-08-02T17:31:21;1.95;;;1.60;;
17496;SDS011;62150;43.582;1.456;2022-08-02T17:33:49;2.00;;;1.80;;
17496;SDS011;62150;43.582;1.456;2022-08-02T17:36:16;2.00;;;1.80;;
17496;SDS011;62150;43.582;1.456;2022-08-02T17:38:44;1.67;;;1.50;;
17496;SDS011;62150;43.582;1.456;2022-08-02T17:41:11;3.30;;;1.70;;
17496;SDS011;62150;43.582;1.456;2022-08-02T17:43:39;1.88;;;1.60;;
17496;SDS011;62150;43.582;1.456;2022-08-02T17:46:07;1.60;;;1.50;;
17496;SDS011;62150;43.582;1.456;2022-08-02T17:48:36;2.00;;;1.58;;
17496;SDS011;62150;43.582;1.456;2022-08-02T17:51:17;1.67;;;1.55;;
17496;SDS011;62150;43.582;1.456;2022-08-02T17:53:45;2.08;;;1.50;;
17496;SDS011;62150;43.582;1.456;2022-08-02T17:56:12;2.95;;;1.50;;
17496;SDS011;62150;43.582;1.456;2022-08-02T17:58:40;2.00;;;1.60;;
17496;SDS011;62150;43.582;1.456;2022-08-02T18:01:07;2.00;;;1.80;;
17496;SDS011;62150;43.582;1.456;2022-08-02T18:03:37;2.15;;;1.70;;
17496;SDS011;62150;43.582;1.456;2022-08-02T18:06:04;1.88;;;1.60;;
17496;SDS011;62150;43.582;1.456;2022-08-02T18:08:32;1.70;;;1.60;;
17496;SDS011;62150;43.582;1.456;2022-08-02T18:11:00;1.77;;;1.50;;
17496;SDS011;62150;43.582;1.456;2022-08-02T18:13:28;3.05;;;1.70;;
17496;SDS011;62150;43.582;1.456;2022-08-02T18:15:55;1.75;;;1.52;;
17496;SDS011;62150;43.582;1.456;2022-08-02T18:18:23;2.28;;;1.70;;
17496;SDS011;62150;43.582;1.456;2022-08-02T18:20:52;3.30;;;1.80;;
17496;SDS011;62150;43.582;1.456;2022-08-02T18:23:19;2.17;;;1.73;;
17496;SDS011;62150;43.582;1.456;2022-08-02T18:25:47;2.50;;;1.60;;
17496;SDS011;62150;43.582;1.456;2022-08-02T18:28:14;4.05;;;1.90;;
17496;SDS011;62150;43.582;1.456;2022-08-02T18:30:42;2.40;;;1.92;;
17496;SDS011;62150;43.582;1.456;2022-08-02T18:33:10;3.17;;;1.85;;
17496;SDS011;62150;43.582;1.456;2022-08-02T18:35:37;2.72;;;1.70;;
17496;SDS011;62150;43.582;1.456;2022-08-02T18:38:06;2.78;;;1.80;;
17496;SDS011;62150;43.582;1.456;2022-08-02T18:40:35;2.33;;;1.70;;
17496;SDS011;62150;43.582;1.456;2022-08-02T18:43:02;3.70;;;1.80;;
17496;SDS011;62150;43.582;1.456;2022-08-02T18:45:30;2.20;;;1.90;;
17496;SDS011;62150;43.582;1.456;2022-08-02T18:47:58;3.15;;;1.92;;
17496;SDS011;62150;43.582;1.456;2022-08-02T18:50:25;3.45;;;2.10;;
17496;SDS011;62150;43.582;1.456;2022-08-02T18:52:53;3.72;;;2.13;;
17496;SDS011;62150;43.582;1.456;2022-08-02T18:55:22;3.95;;;2.10;;
17496;SDS011;62150;43.582;1.456;2022-08-02T18:57:49;5.95;;;2.20;;
17496;SDS011;62150;43.582;1.456;2022-08-02T19:00:17;3.72;;;2.20;;
17496;SDS011;62150;43.582;1.456;2022-08-02T19:02:45;5.88;;;2.20;;
17496;SDS011;62150;43.582;1.456;2022-08-02T19:05:12;4.65;;;2.30;;
17496;SDS011;62150;43.582;1.456;2022-08-02T19:07:40;3.63;;;2.33;;
17496;SDS011;62150;43.582;1.456;2022-08-02T19:10:08;5.20;;;2.30;;
17496;SDS011;62150;43.582;1.456;2022-08-02T19:12:37;4.97;;;2.20;;
17496;SDS011;62150;43.582;1.456;2022-08-02T19:15:05;4.97;;;2.25;;
17496;SDS011;62150;43.582;1.456;2022-08-02T19:17:35;4.93;;;2.42;;
17496;SDS011;62150;43.582;1.456;2022-08-02T19:20:03;2.63;;;2.00;;
17496;SDS011;62150;43.582;1.456;2022-08-02T19:22:31;3.10;;;2.10;;
17496;SDS011;62150;43.582;1.456;2022-08-02T19:24:59;5.63;;;2.60;;
17496;SDS011;62150;43.582;1.456;2022-08-02T19:27:28;5.78;;;2.70;;
17496;SDS011;62150;43.582;1.456;2022-08-02T19:29:57;8.68;;;3.95;;
17496;SDS011;62150;43.582;1.456;2022-08-02T19:32:25;8.52;;;4.05;;
17496;SDS011;62150;43.582;1.456;2022-08-02T19:34:53;9.10;;;4.78;;
17496;SDS011;62150;43.582;1.456;2022-08-02T19:37:22;8.90;;;3.97;;
17496;SDS011;62150;43.582;1.456;2022-08-02T19:39:50;8.57;;;3.83;;
17496;SDS011;62150;43.582;1.456;2022-08-02T19:42:17;6.57;;;3.38;;
17496;SDS011;62150;43.582;1.456;2022-08-02T19:44:46;7.40;;;3.67;;
17496;SDS011;62150;43.582;1.456;2022-08-02T19:47:15;5.63;;;2.92;;
17496;SDS011;62150;43.582;1.456;2022-08-02T19:49:43;6.00;;;2.90;;
17496;SDS011;62150;43.582;1.456;2022-08-02T19:52:11;5.07;;;2.80;;
17496;SDS011;62150;43.582;1.456;2022-08-02T19:54:39;5.75;;;2.90;;
17496;SDS011;62150;43.582;1.456;2022-08-02T19:57:07;5.13;;;2.67;;
17496;SDS011;62150;43.582;1.456;2022-08-02T19:59:34;6.43;;;2.85;;
17496;SDS011;62150;43.582;1.456;2022-08-02T20:02:02;5.78;;;2.70;;
17496;SDS011;62150;43.582;1.456;2022-08-02T20:04:31;5.35;;;2.70;;
17496;SDS011;62150;43.582;1.456;2022-08-02T20:06:59;7.55;;;3.20;;
17496;SDS011;62150;43.582;1.456;2022-08-02T20:09:28;5.88;;;3.03;;
17496;SDS011;62150;43.582;1.456;2022-08-02T20:11:57;10.07;;;4.88;;
17496;SDS011;62150;43.582;1.456;2022-08-02T20:14:25;9.45;;;4.57;;
17496;SDS011;62150;43.582;1.456;2022-08-02T20:16:56;12.65;;;6.28;;
17496;SDS011;62150;43.582;1.456;2022-08-02T20:19:29;10.63;;;5.45;;
17496;SDS011;62150;43.582;1.456;2022-08-02T20:21:58;11.13;;;5.70;;
17496;SDS011;62150;43.582;1.456;2022-08-02T20:24:25;11.00;;;5.80;;
17496;SDS011;62150;43.582;1.456;2022-08-02T20:26:54;10.98;;;6.30;;
17496;SDS011;62150;43.582;1.456;2022-08-02T20:29:22;12.85;;;6.35;;
17496;SDS011;62150;43.582;1.456;2022-08-02T20:31:49;11.70;;;6.20;;
17496;SDS011;62150;43.582;1.456;2022-08-02T20:34:17;10.73;;;6.03;;
17496;SDS011;62150;43.582;1.456;2022-08-02T20:36:45;12.38;;;6.40;;
17496;SDS011;62150;43.582;1.456;2022-08-02T20:39:14;11.50;;;6.18;;
17496;SDS011;62150;43.582;1.456;2022-08-02T20:41:42;11.93;;;6.80;;
17496;SDS011;62150;43.582;1.456;2022-08-02T20:44:09;12.07;;;6.78;;
17496;SDS011;62150;43.582;1.456;2022-08-02T20:46:37;12.85;;;7.22;;
17496;SDS011;62150;43.582;1.456;2022-08-02T20:49:05;12.43;;;6.88;;
17496;SDS011;62150;43.582;1.456;2022-08-02T20:51:32;12.02;;;6.38;;
17496;SDS011;62150;43.582;1.456;2022-08-02T20:53:59;12.48;;;6.63;;
17496;SDS011;62150;43.582;1.456;2022-08-02T20:56:28;12.27;;;6.63;;